createdAt,value
2023-05-22T00:00:22.083Z,18.60
2023-05-22T00:02:51.145Z,18.60
2023-05-22T00:05:20.584Z,18.60
2023-05-22T00:07:48.820Z,18.60
2023-05-22T00:10:17.039Z,18.60
2023-05-22T00:12:46.548Z,18.50
2023-05-22T00:15:15.028Z,18.50
2023-05-22T00:17:44.497Z,18.50
2023-05-22T00:20:13.328Z,18.60
2023-05-22T00:22:41.514Z,18.50
2023-05-22T00:25:11.696Z,18.40
2023-05-22T00:27:40.197Z,18.40
2023-05-22T00:30:11.495Z,18.40
2023-05-22T00:32:40.588Z,18.30
2023-05-22T00:35:10.423Z,18.30
2023-05-22T00:37:38.625Z,18.30
2023-05-22T00:40:09.023Z,18.40
2023-05-22T00:42:37.159Z,18.30
2023-05-22T00:45:07.402Z,18.20
2023-05-22T00:47:37.429Z,18.20
2023-05-22T00:50:07.185Z,18.30
2023-05-22T00:52:39.078Z,18.20
2023-05-22T00:55:08.873Z,18.30
2023-05-22T00:57:40.574Z,18.20
2023-05-22T01:00:11.430Z,18.10
2023-05-22T01:02:43.430Z,18.10
2023-05-22T01:05:13.368Z,18.10
2023-05-22T01:07:41.967Z,18.10
2023-05-22T01:10:11.017Z,18.10
2023-05-22T01:12:49.382Z,18.10
2023-05-22T01:15:25.688Z,18.00
2023-05-22T01:18:05.672Z,18.00
2023-05-22T01:20:39.288Z,17.90
2023-05-22T01:23:40.757Z,17.90
2023-05-22T01:26:33.033Z,17.90
2023-05-22T01:29:23.949Z,17.90
2023-05-22T01:31:55.954Z,17.90
2023-05-22T01:34:26.231Z,17.80
2023-05-22T01:36:55.847Z,17.80
2023-05-22T01:39:25.838Z,17.90
2023-05-22T01:41:54.209Z,17.80
2023-05-22T01:44:23.874Z,17.80
2023-05-22T01:46:53.605Z,17.80
2023-05-22T01:49:22.124Z,17.80
2023-05-22T01:51:54.137Z,17.80
2023-05-22T01:54:28.465Z,17.90
2023-05-22T01:57:06.888Z,17.80
2023-05-22T01:59:41.474Z,17.60
2023-05-22T02:02:14.834Z,17.50
2023-05-22T02:04:46.966Z,17.40
2023-05-22T02:07:16.372Z,17.40
2023-05-22T02:09:47.669Z,17.40
2023-05-22T02:12:16.981Z,17.30
2023-05-22T02:14:45.667Z,17.30
2023-05-22T02:17:15.300Z,17.30
2023-05-22T02:19:43.497Z,17.20
2023-05-22T02:22:14.053Z,17.20
2023-05-22T02:24:43.300Z,17.20
2023-05-22T02:27:11.899Z,17.20
2023-05-22T02:29:40.471Z,17.20
2023-05-22T02:32:09.731Z,17.20
2023-05-22T02:34:39.270Z,17.30
2023-05-22T02:37:07.757Z,17.30
2023-05-22T02:39:35.954Z,17.30
2023-05-22T02:42:04.344Z,17.30
2023-05-22T02:44:32.868Z,17.20
2023-05-22T02:47:01.051Z,17.30
2023-05-22T02:49:29.462Z,17.30
2023-05-22T02:52:00.150Z,17.20
2023-05-22T02:54:28.278Z,17.20
2023-05-22T02:56:57.236Z,17.20
2023-05-22T02:59:25.565Z,17.30
2023-05-22T03:01:54.550Z,17.30
2023-05-22T03:04:23.086Z,17.10
2023-05-22T03:06:51.307Z,17.00
2023-05-22T03:09:21.767Z,17.10
2023-05-22T03:11:49.893Z,17.00
2023-05-22T03:14:18.061Z,16.90
2023-05-22T03:16:46.706Z,16.70
2023-05-22T03:19:16.312Z,16.70
2023-05-22T03:21:45.150Z,16.70
2023-05-22T03:24:13.938Z,16.80
2023-05-22T03:26:43.900Z,16.70
2023-05-22T03:29:12.453Z,16.70
2023-05-22T03:31:40.637Z,16.70
2023-05-22T03:34:09.198Z,16.60
2023-05-22T03:36:37.427Z,16.50
2023-05-22T03:39:06.423Z,16.50
2023-05-22T03:41:34.680Z,16.70
2023-05-22T03:44:04.405Z,16.60
2023-05-22T03:46:32.608Z,16.60
2023-05-22T03:49:00.801Z,16.40
2023-05-22T03:51:29.242Z,16.40
2023-05-22T03:53:57.403Z,16.30
2023-05-22T03:56:25.707Z,16.30
2023-05-22T03:58:54.242Z,16.40
2023-05-22T04:01:23.812Z,16.40
2023-05-22T04:03:52.268Z,16.40
2023-05-22T04:06:22.071Z,16.40
2023-05-22T04:08:50.613Z,16.40
2023-05-22T04:11:20.083Z,16.30
2023-05-22T04:13:51.327Z,16.30
2023-05-22T04:16:19.837Z,16.40
2023-05-22T04:18:49.426Z,16.40
2023-05-22T04:21:17.570Z,16.40
2023-05-22T04:23:46.037Z,16.40
2023-05-22T04:26:14.436Z,16.40
2023-05-22T04:28:46.295Z,16.40
2023-05-22T04:31:15.058Z,16.40
2023-05-22T04:33:48.469Z,16.60
2023-05-22T04:36:22.300Z,16.50
2023-05-22T04:38:50.448Z,16.50
2023-05-22T04:41:21.219Z,16.60
2023-05-22T04:43:50.558Z,16.60
2023-05-22T04:46:19.039Z,16.70
2023-05-22T04:48:47.221Z,16.60
2023-05-22T04:51:16.344Z,16.60
2023-05-22T04:53:46.290Z,16.90
2023-05-22T04:56:18.642Z,16.80
2023-05-22T04:58:54.210Z,16.90
2023-05-22T05:01:22.756Z,16.90
2023-05-22T05:03:51.148Z,17.40
2023-05-22T05:06:21.969Z,17.30
2023-05-22T05:08:53.399Z,17.20
2023-05-22T05:11:21.728Z,17.40
2023-05-22T05:13:49.897Z,17.50
2023-05-22T05:16:18.839Z,17.30
2023-05-22T05:18:47.002Z,17.30
2023-05-22T05:21:15.279Z,17.30
2023-05-22T05:23:43.946Z,17.60
2023-05-22T05:26:13.479Z,17.40
2023-05-22T05:28:42.274Z,17.70
2023-05-22T05:31:10.920Z,17.80
2023-05-22T05:33:39.081Z,17.60
2023-05-22T05:36:07.826Z,17.60
2023-05-22T05:38:36.333Z,17.60
2023-05-22T05:41:04.549Z,17.50
2023-05-22T05:43:34.093Z,17.60
2023-05-22T05:46:02.624Z,17.50
2023-05-22T05:48:31.084Z,17.60
2023-05-22T05:50:59.336Z,17.70
2023-05-22T05:53:27.768Z,17.70
2023-05-22T05:55:56.194Z,18.00
2023-05-22T05:58:24.312Z,18.10
2023-05-22T06:00:53.806Z,18.00
2023-05-22T06:03:22.900Z,18.00
2023-05-22T06:05:51.341Z,18.10
2023-05-22T06:08:19.954Z,18.00
2023-05-22T06:10:48.633Z,18.20
2023-05-22T06:13:17.032Z,18.30
2023-05-22T06:15:45.204Z,18.50
2023-05-22T06:18:15.046Z,18.30
2023-05-22T06:20:43.264Z,18.30
2023-05-22T06:23:11.645Z,18.20
2023-05-22T06:25:40.609Z,18.70
2023-05-22T06:28:08.766Z,18.60
2023-05-22T06:30:40.215Z,18.90
2023-05-22T06:33:09.357Z,18.70
2023-05-22T06:35:38.989Z,18.60
2023-05-22T06:38:07.126Z,18.70
2023-05-22T06:40:35.806Z,18.70
2023-05-22T06:43:04.409Z,19.00
2023-05-22T06:45:32.874Z,18.80
2023-05-22T06:48:01.138Z,19.10
2023-05-22T06:50:29.855Z,19.40
2023-05-22T06:52:59.656Z,19.60
2023-05-22T06:55:27.783Z,19.90
2023-05-22T06:57:55.958Z,19.90
2023-05-22T07:00:24.159Z,19.70
2023-05-22T07:02:52.629Z,19.70
2023-05-22T07:05:20.852Z,19.50
2023-05-22T07:07:49.034Z,19.70
2023-05-22T07:10:18.538Z,19.70
2023-05-22T07:12:46.955Z,19.80
2023-05-22T07:15:15.082Z,19.90
2023-05-22T07:17:43.336Z,20.30
2023-05-22T07:20:12.383Z,20.70
2023-05-22T07:22:40.553Z,20.40
2023-05-22T07:25:09.942Z,19.80
2023-05-22T07:27:39.503Z,20.10
2023-05-22T07:30:09.460Z,20.20
2023-05-22T07:32:37.776Z,20.30
2023-05-22T07:35:07.665Z,20.70
2023-05-22T07:37:36.944Z,21.40
2023-05-22T07:40:06.865Z,21.50
2023-05-22T07:42:35.886Z,21.60
2023-05-22T07:45:06.214Z,21.10
2023-05-22T07:47:34.642Z,21.50
2023-05-22T07:50:04.394Z,21.40
2023-05-22T07:52:33.026Z,21.90
2023-05-22T07:55:01.559Z,21.90
2023-05-22T07:57:30.755Z,22.00
2023-05-22T07:59:59.312Z,22.20
2023-05-22T08:02:28.972Z,21.90
2023-05-22T08:04:57.253Z,22.10
2023-05-22T08:07:25.815Z,22.50
2023-05-22T08:09:54.054Z,22.80
2023-05-22T08:12:22.160Z,22.70
2023-05-22T08:14:50.354Z,22.60
2023-05-22T08:17:18.707Z,22.30
2023-05-22T08:19:48.806Z,22.40
2023-05-22T08:22:17.108Z,23.50
2023-05-22T08:24:45.295Z,23.50
2023-05-22T08:27:13.472Z,23.90
2023-05-22T08:29:41.743Z,23.30
2023-05-22T08:32:10.028Z,23.80
2023-05-22T08:34:40.217Z,24.40
2023-05-22T08:37:10.835Z,23.80
2023-05-22T08:39:38.978Z,23.60
2023-05-22T08:42:07.855Z,23.10
2023-05-22T08:44:36.134Z,23.60
2023-05-22T08:47:10.223Z,23.50
2023-05-22T08:49:40.676Z,24.20
2023-05-22T08:52:14.375Z,24.60
2023-05-22T08:54:44.239Z,24.40
2023-05-22T08:57:12.680Z,24.20
2023-05-22T08:59:42.540Z,23.70
2023-05-22T09:02:11.988Z,23.70
2023-05-22T09:04:42.119Z,23.60
2023-05-22T09:07:12.156Z,24.30
2023-05-22T09:09:40.637Z,24.60
2023-05-22T09:12:10.781Z,24.60
2023-05-22T09:14:42.996Z,24.80
2023-05-22T09:17:12.868Z,24.90
2023-05-22T09:19:45.986Z,25.10
2023-05-22T09:22:16.707Z,25.90
2023-05-22T09:24:47.382Z,25.10
2023-05-22T09:27:15.553Z,25.60
2023-05-22T09:29:50.926Z,25.40
2023-05-22T09:32:20.298Z,26.20
2023-05-22T09:34:48.541Z,25.00
2023-05-22T09:37:18.930Z,24.50
2023-05-22T09:39:48.394Z,24.80
2023-05-22T09:42:18.358Z,24.80
2023-05-22T09:44:50.419Z,25.60
2023-05-22T09:47:18.846Z,25.50
2023-05-22T09:49:47.585Z,25.60
2023-05-22T09:52:19.156Z,26.50
2023-05-22T09:54:51.236Z,26.80
2023-05-22T09:57:20.788Z,26.30
2023-05-22T09:59:54.298Z,26.70
2023-05-22T10:02:24.768Z,26.00
2023-05-22T10:04:54.683Z,28.30
2023-05-22T10:07:27.881Z,27.00
2023-05-22T10:10:02.385Z,26.40
2023-05-22T10:12:34.978Z,26.40
2023-05-22T10:15:04.280Z,26.80
2023-05-22T10:17:32.996Z,25.90
2023-05-22T10:20:01.552Z,26.10
2023-05-22T10:22:33.235Z,26.70
2023-05-22T10:25:02.735Z,26.30
2023-05-22T10:27:30.959Z,26.80
2023-05-22T10:30:07.559Z,26.10
2023-05-22T10:32:42.262Z,26.80
2023-05-22T10:35:21.065Z,26.60
2023-05-22T10:37:53.079Z,27.00
2023-05-22T10:40:29.014Z,26.70
2023-05-22T10:43:00.819Z,27.20
2023-05-22T10:45:29.982Z,27.90
2023-05-22T10:48:05.688Z,26.60
2023-05-22T10:50:34.681Z,27.40
2023-05-22T10:53:24.722Z,26.70
2023-05-22T10:55:53.810Z,26.80
2023-05-22T10:58:28.536Z,27.00
2023-05-22T11:01:14.103Z,27.70
2023-05-22T11:03:56.751Z,27.40
2023-05-22T11:06:51.034Z,26.90
2023-05-22T11:09:22.811Z,27.60
2023-05-22T11:12:16.456Z,27.70
2023-05-22T11:14:48.915Z,27.20
2023-05-22T11:17:20.363Z,26.60
2023-05-22T11:20:02.636Z,27.20
2023-05-22T11:22:33.108Z,28.50
2023-05-22T11:25:06.192Z,27.50
2023-05-22T11:27:36.783Z,27.50
2023-05-22T11:30:06.752Z,26.80
2023-05-22T11:32:37.565Z,27.10
2023-05-22T11:35:08.614Z,27.30
2023-05-22T11:37:40.615Z,27.40
2023-05-22T11:40:11.673Z,27.40
2023-05-22T11:42:40.260Z,28.00
2023-05-22T11:45:10.328Z,27.20
2023-05-22T11:47:38.814Z,27.40
2023-05-22T11:50:10.796Z,28.00
2023-05-22T11:52:41.467Z,28.10
2023-05-22T11:55:12.030Z,27.80
2023-05-22T11:57:40.693Z,28.00
2023-05-22T12:00:10.718Z,27.70
2023-05-22T12:02:39.579Z,27.60
2023-05-22T12:05:10.510Z,28.10
2023-05-22T12:07:39.115Z,27.60
2023-05-22T12:10:08.561Z,27.70
2023-05-22T12:12:38.611Z,27.60
2023-05-22T12:15:08.405Z,28.00
2023-05-22T12:17:38.475Z,27.60
2023-05-22T12:20:07.840Z,27.40
2023-05-22T12:22:43.023Z,27.60
2023-05-22T12:25:16.402Z,27.50
2023-05-22T12:27:46.739Z,27.10
2023-05-22T12:30:16.221Z,27.70
2023-05-22T12:32:48.727Z,27.80
2023-05-22T12:35:17.608Z,27.50
2023-05-22T12:37:50.481Z,27.80
2023-05-22T12:40:18.933Z,27.60
2023-05-22T12:42:49.854Z,27.60
2023-05-22T12:45:18.849Z,27.50
2023-05-22T12:47:47.648Z,27.50
2023-05-22T12:50:15.947Z,28.40
2023-05-22T12:52:44.443Z,29.10
2023-05-22T12:55:12.763Z,28.60
2023-05-22T12:57:41.235Z,28.30
2023-05-22T13:00:11.989Z,28.10
2023-05-22T13:02:40.626Z,28.90
2023-05-22T13:05:09.263Z,28.70
2023-05-22T13:07:38.835Z,28.20
2023-05-22T13:10:08.169Z,28.80
2023-05-22T13:12:36.327Z,28.00
2023-05-22T13:15:05.010Z,28.70
2023-05-22T13:17:34.939Z,29.00
2023-05-22T13:20:03.538Z,28.60
2023-05-22T13:22:32.001Z,28.70
2023-05-22T13:25:00.219Z,28.70
2023-05-22T13:27:29.158Z,28.20
2023-05-22T13:29:57.931Z,28.10
2023-05-22T13:32:26.392Z,27.90
2023-05-22T13:34:56.085Z,27.50
2023-05-22T13:37:24.610Z,27.80
2023-05-22T13:39:52.965Z,27.80
2023-05-22T13:42:21.656Z,28.60
2023-05-22T13:44:50.078Z,28.90
2023-05-22T13:47:18.300Z,28.30
2023-05-22T13:49:46.956Z,28.10
2023-05-22T13:52:16.558Z,29.80
2023-05-22T13:54:44.939Z,29.10
2023-05-22T13:57:13.297Z,29.60
2023-05-22T13:59:41.789Z,28.90
2023-05-22T14:02:09.927Z,28.30
2023-05-22T14:04:38.118Z,28.60
2023-05-22T14:07:06.856Z,28.70
2023-05-22T14:09:36.888Z,28.30
2023-05-22T14:12:05.466Z,27.90
2023-05-22T14:14:33.642Z,27.90
2023-05-22T14:17:02.276Z,27.90
2023-05-22T14:19:30.813Z,28.00
2023-05-22T14:21:59.034Z,28.10
2023-05-22T14:24:27.257Z,28.50
2023-05-22T14:26:58.213Z,27.80
2023-05-22T14:29:27.002Z,27.90
2023-05-22T14:32:02.561Z,28.60
2023-05-22T14:34:31.136Z,27.90
2023-05-22T14:36:59.416Z,28.20
2023-05-22T14:39:28.040Z,27.80
2023-05-22T14:41:57.640Z,27.60
2023-05-22T14:44:25.838Z,27.60
2023-05-22T14:46:54.759Z,27.40
2023-05-22T14:49:23.520Z,28.30
2023-05-22T14:51:51.649Z,28.00
2023-05-22T14:54:20.811Z,27.70
2023-05-22T14:56:48.958Z,28.50
2023-05-22T14:59:18.910Z,29.00
2023-05-22T15:01:50.573Z,28.10
2023-05-22T15:04:18.901Z,27.70
2023-05-22T15:06:47.419Z,28.70
2023-05-22T15:09:15.775Z,27.80
2023-05-22T15:11:47.095Z,27.50
2023-05-22T15:14:15.640Z,27.60
2023-05-22T15:16:45.218Z,27.70
2023-05-22T15:19:13.560Z,28.30
2023-05-22T15:21:42.558Z,28.30
2023-05-22T15:24:11.371Z,28.40
2023-05-22T15:26:39.499Z,28.40
2023-05-22T15:29:07.734Z,27.70
2023-05-22T15:31:35.981Z,27.30
2023-05-22T15:34:05.753Z,27.40
2023-05-22T15:36:36.503Z,27.60
2023-05-22T15:39:05.194Z,27.20
2023-05-22T15:41:33.367Z,26.80
2023-05-22T15:44:01.789Z,26.80
2023-05-22T15:46:29.958Z,27.20
2023-05-22T15:48:58.534Z,26.70
2023-05-22T15:51:28.102Z,26.30
2023-05-22T15:53:56.313Z,26.50
2023-05-22T15:56:24.917Z,26.40
2023-05-22T15:58:53.079Z,26.60
2023-05-22T16:01:21.224Z,26.30
2023-05-22T16:03:49.529Z,26.70
2023-05-22T16:06:18.221Z,26.60
2023-05-22T16:08:48.044Z,26.70
2023-05-22T16:11:16.535Z,26.40
2023-05-22T16:13:45.228Z,26.20
2023-05-22T16:16:13.508Z,26.50
2023-05-22T16:18:41.743Z,26.30
2023-05-22T16:21:10.219Z,26.50
2023-05-22T16:23:38.335Z,26.50
2023-05-22T16:26:07.965Z,26.50
2023-05-22T16:28:36.092Z,26.10
2023-05-22T16:31:06.255Z,26.00
2023-05-22T16:33:36.368Z,26.30
2023-05-22T16:36:05.085Z,26.30
2023-05-22T16:38:33.655Z,26.10
2023-05-22T16:41:02.734Z,26.00
2023-05-22T16:43:32.376Z,26.10
2023-05-22T16:46:00.770Z,26.20
2023-05-22T16:48:28.888Z,26.50
2023-05-22T16:50:57.303Z,26.40
2023-05-22T16:53:25.428Z,25.90
2023-05-22T16:55:53.629Z,25.80
2023-05-22T16:58:21.855Z,26.30
2023-05-22T17:01:05.724Z,26.00
2023-05-22T17:03:34.025Z,25.80
2023-05-22T17:06:03.427Z,25.70
2023-05-22T17:08:32.187Z,25.70
2023-05-22T17:11:00.457Z,25.60
2023-05-22T17:13:29.005Z,25.60
2023-05-22T17:15:58.668Z,25.70
2023-05-22T17:18:26.998Z,25.50
2023-05-22T17:20:55.820Z,25.90
2023-05-22T17:23:24.298Z,25.90
2023-05-22T17:25:52.473Z,25.70
2023-05-22T17:28:20.661Z,25.60
2023-05-22T17:30:48.894Z,25.70
2023-05-22T17:33:18.788Z,25.50
2023-05-22T17:35:47.487Z,25.90
2023-05-22T17:38:15.979Z,26.10
2023-05-22T17:40:46.078Z,25.60
2023-05-22T17:43:15.169Z,25.80
2023-05-22T17:45:44.591Z,26.10
2023-05-22T17:48:14.574Z,25.80
2023-05-22T17:50:44.534Z,25.60
2023-05-22T17:53:13.545Z,25.10
2023-05-22T17:59:23.264Z,25.70
2023-05-22T18:01:51.532Z,25.70
2023-05-22T18:04:19.912Z,25.90
2023-05-22T18:06:49.494Z,26.00
2023-05-22T18:09:17.955Z,25.20
2023-05-22T18:11:46.250Z,24.90
2023-05-22T18:14:14.458Z,24.50
2023-05-22T18:16:42.599Z,24.50
2023-05-22T18:19:10.801Z,24.60
2023-05-22T18:21:38.991Z,24.40
2023-05-22T18:24:08.812Z,24.20
2023-05-22T18:26:36.944Z,24.00
2023-05-22T18:29:05.062Z,23.90
2023-05-22T18:31:33.335Z,23.50
2023-05-22T18:34:01.524Z,23.40
2023-05-22T18:36:29.707Z,23.40
2023-05-22T18:38:57.877Z,23.30
2023-05-22T18:41:27.849Z,23.40
2023-05-22T18:43:56.008Z,23.30
2023-05-22T18:46:24.231Z,23.60
2023-05-22T18:48:52.436Z,23.50
2023-05-22T18:51:20.972Z,23.80
2023-05-22T18:53:49.196Z,23.50
2023-05-22T18:56:17.382Z,23.40
2023-05-22T18:58:46.912Z,23.70
2023-05-22T19:01:16.957Z,24.30
2023-05-22T19:03:45.119Z,24.30
2023-05-22T19:06:14.049Z,24.50
2023-05-22T19:08:42.195Z,24.60
2023-05-22T19:11:10.332Z,24.20
2023-05-22T19:13:38.743Z,23.60
2023-05-22T19:16:08.605Z,23.20
2023-05-22T19:18:37.265Z,22.50
2023-05-22T19:21:05.485Z,22.60
2023-05-22T19:23:34.081Z,22.50
2023-05-22T19:26:02.542Z,22.30
2023-05-22T19:28:32.329Z,22.10
2023-05-22T19:31:03.095Z,22.50
2023-05-22T19:33:33.154Z,22.20
2023-05-22T19:36:02.022Z,22.10
2023-05-22T19:38:31.154Z,22.00
2023-05-22T19:40:59.361Z,22.10
2023-05-22T19:43:27.691Z,22.30
2023-05-22T19:45:55.971Z,22.20
2023-05-22T19:48:25.010Z,22.30
2023-05-22T19:50:54.761Z,22.30
2023-05-22T19:53:23.091Z,22.10
2023-05-22T19:55:51.384Z,22.00
2023-05-22T19:58:20.177Z,21.70
2023-05-22T20:00:48.683Z,21.80
2023-05-22T20:03:17.346Z,21.70
2023-05-22T20:05:45.563Z,21.60
2023-05-22T20:08:15.596Z,21.50
2023-05-22T20:10:43.724Z,21.40
2023-05-22T20:13:11.879Z,20.70
2023-05-22T20:15:42.952Z,20.30
2023-05-22T20:18:12.329Z,20.30
2023-05-22T20:20:40.477Z,20.50
2023-05-22T20:23:09.090Z,20.10
2023-05-22T20:25:39.516Z,20.20
2023-05-22T20:28:07.797Z,20.20
2023-05-22T20:30:36.307Z,20.00
2023-05-22T20:33:04.568Z,19.60
2023-05-22T20:35:33.818Z,19.30
2023-05-22T20:38:04.150Z,19.20
2023-05-22T20:40:33.393Z,19.20
2023-05-22T20:43:03.774Z,18.90
2023-05-22T20:45:31.988Z,18.80
2023-05-22T20:48:00.793Z,18.70
2023-05-22T20:50:29.045Z,18.70
2023-05-22T20:52:57.190Z,18.50
2023-05-22T20:55:25.810Z,18.50
2023-05-22T20:57:54.341Z,18.60
2023-05-22T21:00:24.278Z,18.40
2023-05-22T21:02:52.951Z,18.60
2023-05-22T21:05:21.420Z,18.70
2023-05-22T21:07:49.545Z,19.00
2023-05-22T21:10:18.044Z,19.00
2023-05-22T21:12:46.525Z,19.30
2023-05-22T21:15:14.945Z,19.10
2023-05-22T21:17:44.446Z,19.20
2023-05-22T21:20:13.354Z,19.30
2023-05-22T21:22:41.496Z,19.00
2023-05-22T21:25:11.185Z,19.00
2023-05-22T21:27:39.323Z,19.00
2023-05-22T21:30:08.729Z,18.90
2023-05-22T21:32:36.862Z,18.80
2023-05-22T21:35:07.521Z,18.50
2023-05-22T21:37:35.757Z,18.50
2023-05-22T21:40:04.068Z,18.60
2023-05-22T21:42:45.022Z,18.50
2023-05-22T21:45:14.529Z,18.30
2023-05-22T21:47:42.766Z,18.50
2023-05-22T21:50:12.967Z,18.40
2023-05-22T21:52:41.198Z,18.60
2023-05-22T21:55:10.050Z,18.40
2023-05-22T21:57:38.610Z,18.60
2023-05-22T22:00:07.877Z,18.40
2023-05-22T22:02:36.191Z,18.60
2023-05-22T22:05:04.548Z,18.30
2023-05-22T22:07:34.406Z,18.20
2023-05-22T22:10:02.787Z,18.00
2023-05-22T22:12:30.941Z,18.20
2023-05-22T22:14:59.552Z,18.30
2023-05-22T22:17:27.764Z,18.40
2023-05-22T22:19:57.010Z,18.60
2023-05-22T22:22:26.286Z,18.80
2023-05-22T22:24:56.057Z,18.90
2023-05-22T22:27:25.141Z,18.90
2023-05-22T22:29:53.651Z,18.70
2023-05-22T22:32:21.793Z,18.70
2023-05-22T22:34:54.002Z,18.70
2023-05-22T22:37:22.505Z,18.70
2023-05-22T22:39:50.716Z,18.70
2023-05-22T22:42:20.449Z,18.90
2023-05-22T22:44:48.889Z,18.90
2023-05-22T22:47:17.596Z,18.70
2023-05-22T22:49:45.719Z,17.90
2023-05-22T22:52:14.176Z,17.50
2023-05-22T22:54:44.547Z,17.50
2023-05-22T22:57:13.156Z,17.50
2023-05-22T22:59:43.027Z,17.70
2023-05-22T23:02:11.526Z,17.90
2023-05-22T23:04:39.960Z,18.00
2023-05-22T23:07:08.629Z,17.90
2023-05-22T23:09:37.072Z,17.90
2023-05-22T23:12:06.724Z,17.90
2023-05-22T23:14:37.907Z,17.80
2023-05-22T23:17:07.821Z,18.00
2023-05-22T23:19:36.208Z,17.80
2023-05-22T23:22:04.465Z,17.60
2023-05-22T23:24:32.605Z,17.70
2023-05-22T23:27:01.489Z,17.60
2023-05-22T23:29:30.001Z,17.60
2023-05-22T23:31:58.713Z,17.50
2023-05-22T23:34:28.302Z,17.40
2023-05-22T23:36:56.707Z,17.60
2023-05-22T23:39:24.880Z,17.50
2023-05-22T23:41:54.162Z,17.60
2023-05-22T23:44:22.619Z,17.80
2023-05-22T23:46:51.063Z,17.90
2023-05-22T23:49:19.524Z,17.80
2023-05-22T23:51:49.119Z,17.90
2023-05-22T23:54:18.456Z,17.70
2023-05-22T23:56:46.581Z,17.50
2023-05-22T23:59:14.970Z,17.50
